Time;durP1;ratioP1;P1;durP2;ratioP2;P2;SDS_P1;SDS_P2;PMS_P1;PMS_P2;Temp;Humidity;BMP_temperature;BMP_pressure;BME280_temperature;BME280_humidity;BME280_pressure;Samples;Min_cycle;Max_cycle;Signal;HPM_P1;HPM_P2
2024/03/08 00:03:52;;;;;;;18.45;12.27;;;1.60;99.90;;;;;;12432033;28;20057;-35
2024/03/08 00:09:53;;;;;;;19.65;13.43;;;1.60;99.90;;;;;;12434045;28;20128;-35
2024/03/08 00:15:57;;;;;;;20.30;12.50;;;1.50;99.90;;;;;;12428639;28;20042;-35
2024/03/08 00:21:59;;;;;;;21.43;13.33;;;1.40;99.90;;;;;;12434174;28;20046;-35
2024/03/08 00:28:01;;;;;;;18.58;11.07;;;1.60;99.90;;;;;;12440030;28;20048;-35
2024/03/08 00:34:02;;;;;;;17.25;10.15;;;1.70;99.90;;;;;;12430425;28;20103;-35
2024/03/08 00:40:06;;;;;;;22.27;11.48;;;1.80;99.90;;;;;;12434263;28;20093;-35
2024/03/08 00:46:09;;;;;;;19.02;11.63;;;1.60;99.90;;;;;;12412294;28;20108;-35
2024/03/08 00:52:10;;;;;;;19.67;11.25;;;1.60;99.90;;;;;;12433558;28;20137;-34
2024/03/08 00:58:13;;;;;;;19.92;11.45;;;1.60;99.90;;;;;;12429205;28;20050;-35
2024/03/08 01:04:15;;;;;;;18.40;11.20;;;1.60;99.90;;;;;;12424755;28;20161;-35
2024/03/08 01:10:17;;;;;;;25.58;12.65;;;1.60;99.90;;;;;;12430926;28;20172;-35
2024/03/08 01:16:20;;;;;;;19.58;11.30;;;1.40;99.90;;;;;;12424200;28;20395;-35
2024/03/08 01:22:22;;;;;;;20.88;11.80;;;1.20;99.90;;;;;;12429165;28;20068;-35
2024/03/08 01:28:25;;;;;;;20.23;11.68;;;1.10;99.90;;;;;;12423825;28;20073;-35
2024/03/08 01:34:28;;;;;;;23.35;12.70;;;1.00;99.90;;;;;;12431512;28;20089;-35
2024/03/08 01:40:30;;;;;;;22.83;11.68;;;1.00;99.90;;;;;;12423510;28;20050;-35
2024/03/08 01:46:33;;;;;;;20.20;10.98;;;1.20;99.90;;;;;;12431445;28;20057;-35
2024/03/08 01:52:36;;;;;;;22.00;12.27;;;1.30;99.90;;;;;;12441179;28;20141;-34
2024/03/08 01:58:40;;;;;;;19.98;11.00;;;1.30;99.90;;;;;;12434100;28;20050;-34
2024/03/08 02:04:42;;;;;;;20.08;11.82;;;1.00;99.90;;;;;;12451026;28;20081;-35
2024/03/08 02:10:44;;;;;;;24.27;11.82;;;0.90;99.90;;;;;;12449278;28;20080;-35
2024/03/08 02:16:46;;;;;;;20.95;11.70;;;1.00;99.90;;;;;;12432807;28;20050;-35
2024/03/08 02:22:50;;;;;;;20.13;11.70;;;0.90;99.90;;;;;;12448367;28;20413;-35
2024/03/08 02:28:52;;;;;;;17.58;11.23;;;0.80;99.90;;;;;;12438760;28;20064;-35
2024/03/08 02:34:59;;;;;;;22.70;12.73;;;0.90;99.90;;;;;;12444340;28;20050;-35
2024/03/08 02:41:03;;;;;;;21.65;12.23;;;0.90;99.90;;;;;;12435341;28;20306;-35
2024/03/08 02:47:05;;;;;;;18.77;11.23;;;0.90;99.90;;;;;;12433478;28;20054;-35
2024/03/08 02:53:08;;;;;;;19.77;12.60;;;1.00;99.90;;;;;;12442458;28;20057;-35
2024/03/08 02:59:09;;;;;;;23.38;12.77;;;0.90;99.90;;;;;;12433760;28;20118;-35
2024/03/08 03:05:11;;;;;;;23.17;12.20;;;0.80;99.90;;;;;;12442632;28;20054;-35
2024/03/08 03:11:13;;;;;;;21.45;12.30;;;0.80;99.90;;;;;;12434575;28;20042;-35
2024/03/08 03:17:16;;;;;;;22.58;12.43;;;0.90;99.90;;;;;;12434819;28;20482;-34
2024/03/08 03:23:20;;;;;;;21.90;12.27;;;0.90;99.90;;;;;;12414302;28;20069;-34
2024/03/08 03:29:22;;;;;;;21.33;11.95;;;0.80;99.90;;;;;;12429782;28;20498;-35
2024/03/08 03:35:24;;;;;;;22.55;12.90;;;0.70;99.90;;;;;;12438944;28;20932;-35
2024/03/08 03:41:26;;;;;;;25.92;12.68;;;0.70;99.90;;;;;;12436157;28;20050;-35
2024/03/08 03:47:28;;;;;;;21.85;13.18;;;0.60;99.90;;;;;;12438054;28;20095;-35
2024/03/08 03:53:30;;;;;;;27.33;13.98;;;0.50;99.90;;;;;;12431054;28;20053;-35
2024/03/08 03:59:31;;;;;;;23.58;13.65;;;0.50;99.90;;;;;;12425302;28;20065;-35
2024/03/08 04:05:34;;;;;;;23.38;13.48;;;0.40;99.90;;;;;;12436948;28;20046;-35
2024/03/08 04:11:36;;;;;;;23.67;13.63;;;0.40;99.90;;;;;;12433699;28;20068;-35
2024/03/08 04:17:38;;;;;;;25.65;13.02;;;0.30;99.90;;;;;;12430212;28;20042;-34
2024/03/08 04:23:40;;;;;;;20.83;13.13;;;0.20;99.90;;;;;;12435681;28;20054;-35
2024/03/08 04:29:42;;;;;;;23.42;12.32;;;0.10;99.90;;;;;;12427837;28;20136;-35
2024/03/08 04:35:45;;;;;;;24.55;12.75;;;0.10;99.90;;;;;;12431125;28;20053;-35
2024/03/08 04:41:47;;;;;;;26.60;14.55;;;-0.10;99.90;;;;;;12435293;28;20519;-35
2024/03/08 04:47:49;;;;;;;24.58;12.35;;;0.10;99.90;;;;;;12432454;28;20060;-36
2024/03/08 04:53:51;;;;;;;25.48;13.15;;;0.20;99.90;;;;;;12416760;28;20081;-35
2024/03/08 04:59:53;;;;;;;25.17;13.02;;;0.40;99.90;;;;;;12442254;28;20049;-36
2024/03/08 05:05:56;;;;;;;25.75;12.60;;;0.40;99.90;;;;;;12433372;28;20142;-35
2024/03/08 05:11:58;;;;;;;24.20;13.20;;;0.40;99.90;;;;;;12420488;28;20088;-34
2024/03/08 05:18:00;;;;;;;28.90;15.23;;;0.50;99.90;;;;;;12423661;28;20046;-41
2024/03/08 05:24:03;;;;;;;24.58;13.38;;;0.60;99.90;;;;;;12426855;28;20049;-35
2024/03/08 05:30:06;;;;;;;24.60;13.25;;;0.70;99.90;;;;;;12434026;28;20387;-35
2024/03/08 05:36:08;;;;;;;27.67;14.13;;;0.60;99.90;;;;;;12430823;28;20057;-35
2024/03/08 05:42:10;;;;;;;25.00;14.60;;;0.60;99.90;;;;;;12426076;28;20502;-35
2024/03/08 05:48:13;;;;;;;24.00;13.30;;;0.70;99.90;;;;;;12427153;28;20486;-35
2024/03/08 05:54:15;;;;;;;27.05;14.07;;;0.60;99.90;;;;;;12431826;28;20050;-35
2024/03/08 06:00:22;;;;;;;25.30;14.05;;;0.70;99.90;;;;;;12414584;28;20141;-35
2024/03/08 06:06:24;;;;;;;30.35;14.70;;;0.50;99.90;;;;;;12429232;28;20046;-35
2024/03/08 06:12:28;;;;;;;25.20;14.20;;;0.50;99.90;;;;;;12424805;28;20050;-35
2024/03/08 06:18:31;;;;;;;24.52;13.88;;;0.50;99.90;;;;;;12421740;28;20523;-35
2024/03/08 06:24:36;;;;;;;24.17;13.85;;;0.50;99.90;;;;;;12429688;28;20050;-35
2024/03/08 06:30:38;;;;;;;25.00;14.38;;;0.50;99.90;;;;;;12421451;28;20418;-35
2024/03/08 06:36:40;;;;;;;26.13;13.80;;;0.60;99.90;;;;;;12422396;28;20426;-35
2024/03/08 06:42:42;;;;;;;27.35;14.27;;;0.60;99.90;;;;;;12439711;28;20053;-35
2024/03/08 06:48:48;;;;;;;28.00;14.57;;;0.60;99.90;;;;;;12437248;28;20054;-35
2024/03/08 06:54:52;;;;;;;29.40;15.30;;;0.70;99.90;;;;;;12435974;28;20045;-35
2024/03/08 07:00:58;;;;;;;25.25;14.68;;;0.80;99.90;;;;;;12438615;28;20053;-35
2024/03/08 07:07:02;;;;;;;26.88;14.60;;;1.00;99.90;;;;;;12441763;28;20399;-35
2024/03/08 07:13:04;;;;;;;28.30;15.07;;;1.10;99.90;;;;;;12440178;28;20132;-35
2024/03/08 07:19:06;;;;;;;31.23;15.63;;;1.10;99.90;;;;;;12435315;28;20050;-35
2024/03/08 07:37:14;;;;;;;28.23;15.63;;;1.40;99.90;;;;;;12428752;28;20062;-35
2024/03/08 07:43:16;;;;;;;28.73;16.08;;;1.60;99.90;;;;;;12438648;28;20050;-35
2024/03/08 07:49:18;;;;;;;28.50;16.05;;;1.80;99.90;;;;;;12430806;28;20141;-35
2024/03/08 07:55:20;;;;;;;30.88;15.85;;;2.00;99.90;;;;;;12436249;28;20057;-35
2024/03/08 08:01:22;;;;;;;29.05;16.80;;;2.30;99.90;;;;;;12432624;28;20133;-35
2024/03/08 08:07:24;;;;;;;29.48;17.27;;;2.60;99.90;;;;;;12435357;28;20054;-35
2024/03/08 08:13:27;;;;;;;28.00;17.08;;;2.70;99.90;;;;;;12426281;28;20049;-34
2024/03/08 08:19:30;;;;;;;27.73;17.65;;;3.00;99.90;;;;;;12431108;28;20046;-35
2024/03/08 08:25:34;;;;;;;25.23;16.75;;;3.10;99.90;;;;;;12404648;28;20064;-35
2024/03/08 08:31:37;;;;;;;29.42;18.60;;;3.30;99.90;;;;;;12428263;28;20080;-34
2024/03/08 08:37:39;;;;;;;25.63;16.08;;;3.40;99.90;;;;;;12362673;28;20046;-34
2024/03/08 08:43:43;;;;;;;29.52;17.27;;;3.60;99.90;;;;;;12375484;28;20177;-34
2024/03/08 08:50:00;;;;;;;25.38;16.63;;;3.90;99.90;;;;;;12377475;28;20101;-34
2024/03/08 08:56:02;;;;;;;26.77;16.95;;;4.10;99.90;;;;;;12382478;28;20047;-34
2024/03/08 09:02:08;;;;;;;25.77;16.63;;;4.40;99.90;;;;;;12388885;28;20053;-35
2024/03/08 09:08:13;;;;;;;29.75;17.17;;;4.50;99.90;;;;;;12381720;28;20054;-34
2024/03/08 09:14:15;;;;;;;27.88;16.65;;;4.70;99.90;;;;;;12372913;28;20093;-34
2024/03/08 09:20:17;;;;;;;26.45;16.75;;;4.90;99.90;;;;;;12378165;28;20054;-34
2024/03/08 09:26:19;;;;;;;24.80;17.00;;;5.10;99.90;;;;;;12365998;28;20157;-34
2024/03/08 09:32:30;;;;;;;26.92;16.25;;;5.20;99.90;;;;;;12381701;28;20080;-35
2024/03/08 09:38:31;;;;;;;25.55;16.90;;;5.30;99.90;;;;;;12427626;28;20391;-35
2024/03/08 09:44:34;;;;;;;27.55;16.20;;;5.40;99.90;;;;;;12415204;28;20991;-35
2024/03/08 09:50:36;;;;;;;34.45;19.63;;;5.60;99.90;;;;;;12429371;28;20049;-35
2024/03/08 09:56:44;;;;;;;29.42;17.33;;;5.50;99.90;;;;;;12410449;28;20137;-35
2024/03/08 10:02:46;;;;;;;23.65;15.57;;;5.90;99.90;;;;;;12430882;28;20041;-35
2024/03/08 10:08:48;;;;;;;23.08;15.45;;;5.80;99.90;;;;;;12426943;28;20422;-35
2024/03/08 10:14:50;;;;;;;27.05;16.60;;;6.00;99.90;;;;;;12417478;28;20045;-34
2024/03/08 10:21:10;;;;;;;23.17;15.35;;;6.20;99.90;;;;;;12442083;28;20061;-35
2024/03/08 10:27:12;;;;;;;26.50;16.38;;;6.40;99.90;;;;;;12441918;28;20045;-35
2024/03/08 10:33:14;;;;;;;22.90;13.43;;;6.60;99.90;;;;;;12439480;28;20057;-34
2024/03/08 10:39:24;;;;;;;22.02;14.60;;;6.70;99.90;;;;;;12442761;28;20501;-35
2024/03/08 10:45:36;;;;;;;23.48;13.73;;;6.90;99.90;;;;;;12441710;28;20089;-34
2024/03/08 10:51:41;;;;;;;22.73;14.15;;;6.90;99.90;;;;;;12432913;28;20084;-35
2024/03/08 10:57:43;;;;;;;23.33;13.60;;;7.00;99.90;;;;;;12436972;28;20129;-35
2024/03/08 11:03:48;;;;;;;20.75;13.55;;;6.90;99.90;;;;;;12436826;28;20442;-35
2024/03/08 11:09:50;;;;;;;21.80;14.95;;;7.10;99.90;;;;;;12422592;28;20754;-35
2024/03/08 11:15:52;;;;;;;21.95;15.35;;;7.40;99.90;;;;;;12437273;28;20133;-35
2024/03/08 11:21:58;;;;;;;23.88;14.48;;;7.50;99.90;;;;;;12420328;28;20465;-35
2024/03/08 11:28:20;;;;;;;25.70;14.98;;;7.70;99.90;;;;;;12438783;28;20050;-35
2024/03/08 11:34:22;;;;;;;21.42;14.05;;;7.60;99.90;;;;;;12437343;28;20061;-35
2024/03/08 11:40:24;;;;;;;22.92;14.55;;;7.70;99.90;;;;;;12437404;28;20061;-35
2024/03/08 11:46:28;;;;;;;21.02;13.35;;;7.70;99.90;;;;;;12442728;28;20060;-35
2024/03/08 11:52:31;;;;;;;23.38;13.95;;;7.60;99.90;;;;;;12442333;28;20053;-35
2024/03/08 11:58:32;;;;;;;23.33;13.60;;;7.50;99.90;;;;;;12442568;28;20049;-35
2024/03/08 12:04:35;;;;;;;25.52;14.70;;;7.40;99.90;;;;;;12437594;28;20058;-34
2024/03/08 12:10:38;;;;;;;19.67;12.10;;;7.60;99.90;;;;;;12436528;28;20499;-35
2024/03/08 12:16:41;;;;;;;19.98;12.95;;;7.60;99.90;;;;;;12436603;28;20149;-35
2024/03/08 12:22:46;;;;;;;21.40;12.55;;;7.70;99.90;;;;;;12419447;28;20046;-35
2024/03/08 12:28:48;;;;;;;22.63;13.80;;;7.80;99.90;;;;;;12437378;28;20046;-35
2024/03/08 12:34:53;;;;;;;21.20;12.55;;;8.00;99.90;;;;;;12438128;28;20414;-35
2024/03/08 12:41:00;;;;;;;25.02;13.35;;;8.00;99.90;;;;;;12437568;28;20073;-35
2024/03/08 12:47:03;;;;;;;22.90;13.23;;;8.10;99.90;;;;;;12433879;28;20054;-35
2024/03/08 12:53:06;;;;;;;21.27;14.00;;;8.50;99.90;;;;;;12431311;28;20152;-35
2024/03/08 12:59:10;;;;;;;21.52;13.82;;;8.50;99.90;;;;;;12418055;28;20422;-35
2024/03/08 13:05:14;;;;;;;24.35;14.57;;;8.30;99.90;;;;;;12437107;28;20072;-35
2024/03/08 13:11:16;;;;;;;23.83;14.55;;;8.20;99.90;;;;;;12435760;28;20046;-35
2024/03/08 13:17:18;;;;;;;20.50;13.48;;;8.30;99.90;;;;;;12401804;28;20081;-35
2024/03/08 13:23:20;;;;;;;24.40;14.90;;;8.50;99.90;;;;;;12427782;28;20077;-35
2024/03/08 13:29:22;;;;;;;21.80;14.20;;;8.50;99.90;;;;;;12430469;28;20054;-35
2024/03/08 13:35:27;;;;;;;23.17;13.90;;;8.30;99.90;;;;;;12432077;28;20061;-35
2024/03/08 13:41:28;;;;;;;23.80;14.25;;;8.20;99.90;;;;;;12437725;28;20510;-35
2024/03/08 13:47:33;;;;;;;23.85;13.60;;;8.20;99.90;;;;;;12445895;28;20136;-35
2024/03/08 13:53:35;;;;;;;22.75;14.57;;;8.30;99.90;;;;;;12442612;28;20061;-35
2024/03/08 13:59:38;;;;;;;21.48;13.10;;;8.30;99.90;;;;;;12440555;28;20046;-35
2024/03/08 14:05:41;;;;;;;22.80;13.55;;;8.10;99.90;;;;;;12441716;28;20046;-35
2024/03/08 14:11:46;;;;;;;19.75;12.68;;;8.20;99.90;;;;;;12428681;28;20050;-35
2024/03/08 14:17:55;;;;;;;23.90;14.73;;;8.20;99.90;;;;;;12440209;28;20049;-34
2024/03/08 14:23:57;;;;;;;21.40;15.07;;;8.40;99.90;;;;;;12432193;28;20050;-34
2024/03/08 14:29:59;;;;;;;25.90;15.45;;;8.60;99.90;;;;;;12423708;28;20055;-36
2024/03/08 14:36:01;;;;;;;24.65;15.35;;;8.50;99.90;;;;;;12437195;28;20441;-35
2024/03/08 14:42:05;;;;;;;24.25;15.20;;;8.50;99.90;;;;;;12434502;28;20073;-35
2024/03/08 14:48:07;;;;;;;25.03;15.73;;;8.50;99.90;;;;;;12434222;28;20046;-35
2024/03/08 14:54:10;;;;;;;23.40;14.75;;;8.60;99.90;;;;;;12436804;28;20046;-34
2024/03/08 15:00:18;;;;;;;22.38;14.23;;;8.50;99.90;;;;;;12413165;28;20463;-35
2024/03/08 15:06:21;;;;;;;23.92;13.85;;;8.60;99.90;;;;;;12429877;28;20060;-35
2024/03/08 15:12:25;;;;;;;24.02;14.88;;;8.50;99.90;;;;;;12436685;28;20128;-35
2024/03/08 15:18:34;;;;;;;23.48;14.38;;;8.50;99.90;;;;;;12434817;28;20084;-35
2024/03/08 15:24:37;;;;;;;20.77;14.00;;;8.50;99.90;;;;;;12438703;28;20046;-35
2024/03/08 15:30:39;;;;;;;23.83;14.73;;;8.50;99.90;;;;;;12439180;28;20506;-34
2024/03/08 15:36:42;;;;;;;24.65;14.63;;;8.50;99.90;;;;;;12425420;28;20084;-34
2024/03/08 15:42:44;;;;;;;23.50;15.63;;;8.40;99.90;;;;;;12438269;28;20092;-35
2024/03/08 15:48:48;;;;;;;24.77;14.90;;;8.40;99.90;;;;;;12440726;28;20082;-35
2024/03/08 15:54:51;;;;;;;23.58;14.88;;;8.40;99.90;;;;;;12419430;28;20514;-35
2024/03/08 16:00:53;;;;;;;22.67;15.07;;;8.30;99.90;;;;;;12436972;28;20050;-35
2024/03/08 16:06:55;;;;;;;24.42;15.27;;;8.30;99.90;;;;;;12438500;28;20053;-35
2024/03/08 16:12:57;;;;;;;25.17;15.48;;;8.20;99.90;;;;;;12438481;28;20172;-35
2024/03/08 16:18:59;;;;;;;23.17;14.93;;;8.00;99.90;;;;;;12416239;28;20057;-35
2024/03/08 16:25:00;;;;;;;23.45;15.82;;;7.90;99.90;;;;;;12437261;28;20505;-35
2024/03/08 16:31:04;;;;;;;27.40;16.13;;;7.80;99.90;;;;;;12435965;28;20080;-34
2024/03/08 16:37:06;;;;;;;28.00;16.67;;;7.70;99.90;;;;;;12437084;28;20144;-35
2024/03/08 16:43:11;;;;;;;25.58;15.63;;;7.60;99.90;;;;;;12437586;28;20050;-35
2024/03/08 16:49:13;;;;;;;24.83;15.65;;;7.50;99.90;;;;;;12434376;28;20081;-35
2024/03/08 16:55:14;;;;;;;30.10;17.40;;;7.30;99.90;;;;;;12432571;28;20137;-35
2024/03/08 17:01:16;;;;;;;27.98;16.45;;;7.30;99.90;;;;;;12430856;28;20054;-35
2024/03/08 17:07:21;;;;;;;28.42;16.30;;;7.20;99.90;;;;;;12419049;28;20077;-35
2024/03/08 17:13:23;;;;;;;27.25;16.40;;;7.00;99.90;;;;;;12434289;28;20406;-35
2024/03/08 17:19:28;;;;;;;26.55;16.17;;;6.90;99.90;;;;;;12430529;28;20053;-35
2024/03/08 17:25:30;;;;;;;25.08;15.85;;;6.90;99.90;;;;;;12434392;28;20060;-35
2024/03/08 17:31:34;;;;;;;27.00;16.10;;;6.70;99.90;;;;;;12425004;28;20046;-35
2024/03/08 17:37:37;;;;;;;27.97;16.53;;;6.60;99.90;;;;;;12426862;28;20050;-35
2024/03/08 17:43:41;;;;;;;24.80;15.40;;;6.60;99.90;;;;;;12434298;28;20350;-34
2024/03/08 17:49:42;;;;;;;26.30;16.47;;;6.40;99.90;;;;;;12431428;28;20054;-34
2024/03/08 17:55:45;;;;;;;28.25;16.13;;;6.40;99.90;;;;;;12435462;28;20491;-35
2024/03/08 18:01:47;;;;;;;23.35;15.02;;;6.40;99.90;;;;;;12435601;28;20053;-34
2024/03/08 18:07:49;;;;;;;27.67;16.60;;;6.40;99.90;;;;;;12430563;28;20075;-35
2024/03/08 18:13:51;;;;;;;25.98;15.30;;;6.30;99.90;;;;;;12412822;28;20092;-35
2024/03/08 18:19:55;;;;;;;25.90;15.98;;;6.20;99.90;;;;;;12433811;28;20046;-35
2024/03/08 18:25:57;;;;;;;27.25;15.73;;;6.20;99.90;;;;;;12433977;28;20135;-35
2024/03/08 18:31:59;;;;;;;28.02;15.60;;;6.20;99.90;;;;;;12439875;28;20525;-35
2024/03/08 18:38:01;;;;;;;28.80;16.63;;;6.10;99.90;;;;;;12435042;28;20564;-35
2024/03/08 18:44:04;;;;;;;27.90;15.60;;;6.00;99.90;;;;;;12442856;28;20045;-35
2024/03/08 18:50:08;;;;;;;27.85;15.90;;;5.90;99.90;;;;;;12441547;28;20053;-34
2024/03/08 18:56:10;;;;;;;24.25;14.95;;;5.90;99.90;;;;;;12436029;28;20091;-34
2024/03/08 19:02:13;;;;;;;28.65;15.00;;;5.90;99.90;;;;;;12438446;28;20056;-35
2024/03/08 19:08:19;;;;;;;28.60;16.13;;;5.90;99.90;;;;;;12436843;28;20136;-34
2024/03/08 19:14:21;;;;;;;29.58;16.40;;;5.80;99.90;;;;;;12442366;28;20103;-34
2024/03/08 19:20:26;;;;;;;26.60;15.07;;;5.80;99.90;;;;;;12441506;28;20192;-35
2024/03/08 19:26:27;;;;;;;24.65;14.95;;;5.80;99.90;;;;;;12440404;28;20128;-35
2024/03/08 19:32:29;;;;;;;28.48;16.30;;;5.70;99.90;;;;;;12421153;28;20179;-34
2024/03/08 19:38:32;;;;;;;28.50;16.25;;;5.60;99.90;;;;;;12430882;28;20499;-34
2024/03/08 19:44:34;;;;;;;25.73;15.60;;;5.60;99.90;;;;;;12439798;28;20061;-35
2024/03/08 19:50:41;;;;;;;28.10;16.63;;;5.60;99.90;;;;;;12437619;28;20084;-35
2024/03/08 19:56:44;;;;;;;30.40;15.80;;;5.40;99.90;;;;;;12422963;28;20378;-35
2024/03/08 20:02:48;;;;;;;28.70;15.73;;;5.40;99.90;;;;;;12432457;28;20251;-35
2024/03/08 20:08:50;;;;;;;27.03;15.93;;;5.40;99.90;;;;;;12429581;28;20053;-35
2024/03/08 20:14:52;;;;;;;30.33;15.57;;;5.30;99.90;;;;;;12423506;28;20045;-35
2024/03/08 20:20:55;;;;;;;30.00;15.98;;;5.30;99.90;;;;;;12433453;28;20060;-35
2024/03/08 20:26:58;;;;;;;27.73;14.93;;;5.20;99.90;;;;;;12432701;28;20046;-35
2024/03/08 20:33:04;;;;;;;27.50;14.75;;;5.20;99.90;;;;;;12435228;28;20073;-35
2024/03/08 20:39:08;;;;;;;24.50;14.32;;;5.20;99.90;;;;;;12422236;28;20069;-34
2024/03/08 20:45:09;;;;;;;28.27;14.27;;;5.20;99.90;;;;;;12417298;28;20418;-35
2024/03/08 20:51:12;;;;;;;21.80;12.75;;;5.20;99.90;;;;;;12431802;28;20153;-35
2024/03/08 20:57:14;;;;;;;24.13;13.35;;;5.10;99.90;;;;;;12429866;28;20057;-34
2024/03/08 21:03:18;;;;;;;25.95;13.75;;;5.10;99.90;;;;;;12416903;28;20049;-34
2024/03/08 21:09:22;;;;;;;;;;;4.90;99.90;;;;;;12434808;28;20099;-35
2024/03/08 21:15:25;;;;;;;22.23;12.60;;;4.90;99.90;;;;;;12424930;28;19933;-34
2024/03/08 21:21:26;;;;;;;21.17;12.02;;;4.90;99.90;;;;;;12429146;28;20867;-35
2024/03/08 21:27:28;;;;;;;23.60;11.90;;;4.90;99.90;;;;;;12434816;28;20077;-34
2024/03/08 21:33:30;;;;;;;21.40;11.57;;;4.80;99.90;;;;;;12431302;28;20046;-35
2024/03/08 21:39:32;;;;;;;21.70;11.93;;;4.80;99.90;;;;;;12433458;28;20092;-35
2024/03/08 21:45:36;;;;;;;20.23;11.70;;;4.60;99.90;;;;;;12415725;28;20081;-34
2024/03/08 21:51:45;;;;;;;23.70;11.75;;;4.50;99.90;;;;;;12429251;28;20656;-35
2024/03/08 21:57:50;;;;;;;24.85;11.65;;;4.40;99.90;;;;;;12427070;28;20077;-35
2024/03/08 22:03:51;;;;;;;22.27;12.27;;;4.30;99.90;;;;;;12436914;28;20049;-34
2024/03/08 22:09:54;;;;;;;21.80;11.75;;;4.10;99.90;;;;;;12427943;28;20058;-35
2024/03/08 22:15:56;;;;;;;20.80;11.48;;;3.90;99.90;;;;;;12436166;28;20111;-35
2024/03/08 22:21:58;;;;;;;22.42;12.45;;;3.60;99.90;;;;;;12429596;28;20179;-36
2024/03/08 22:27:59;;;;;;;26.60;12.68;;;3.50;99.90;;;;;;12426389;28;20050;-34
2024/03/08 22:34:02;;;;;;;23.27;12.95;;;3.40;99.90;;;;;;12429029;28;20046;-34
2024/03/08 22:40:10;;;;;;;23.17;12.35;;;3.30;99.90;;;;;;12438143;28;20080;-34
2024/03/08 22:46:13;;;;;;;23.08;12.65;;;3.20;99.90;;;;;;12439199;28;20451;-34
2024/03/08 22:52:15;;;;;;;23.23;11.48;;;3.20;99.90;;;;;;12438602;28;20054;-34
2024/03/08 22:58:17;;;;;;;21.98;11.80;;;3.20;99.90;;;;;;12418600;28;20042;-34
2024/03/08 23:04:19;;;;;;;17.27;10.50;;;3.20;99.90;;;;;;12436017;28;20092;-35
2024/03/08 23:10:27;;;;;;;23.42;11.77;;;3.10;99.90;;;;;;12441698;28;20123;-34
2024/03/08 23:16:30;;;;;;;25.63;11.98;;;3.00;99.90;;;;;;12437500;28;20053;-34
2024/03/08 23:22:32;;;;;;;23.25;11.23;;;3.00;99.90;;;;;;12433564;28;20050;-34
2024/03/08 23:28:34;;;;;;;21.00;12.13;;;2.90;99.90;;;;;;12438792;28;20053;-34
2024/03/08 23:34:36;;;;;;;21.02;11.57;;;2.80;99.90;;;;;;12439925;28;20054;-35
2024/03/08 23:40:39;;;;;;;25.17;12.75;;;2.80;99.90;;;;;;12438298;28;20445;-34
2024/03/08 23:46:41;;;;;;;21.85;11.73;;;2.90;99.90;;;;;;12442148;28;20097;-35
2024/03/08 23:52:46;;;;;;;25.08;12.60;;;3.00;99.90;;;;;;12433533;28;20069;-34
2024/03/08 23:58:49;;;;;;;20.40;11.73;;;2.80;99.90;;;;;;12437837;28;20050;-34
